createdAt,value
2022-09-28T00:01:44.371Z,0.10
2022-09-28T00:04:11.596Z,0.10
2022-09-28T00:06:38.335Z,0.10
2022-09-28T00:09:04.941Z,0.10
2022-09-28T00:11:31.609Z,0.10
2022-09-28T00:14:01.265Z,1.10
2022-09-28T00:16:29.343Z,0.10
2022-09-28T00:18:55.949Z,0.10
2022-09-28T00:21:23.492Z,0.10
2022-09-28T00:24:12.434Z,0.10
2022-09-28T00:26:41.082Z,0.10
2022-09-28T00:29:08.629Z,0.10
2022-09-28T00:31:35.471Z,0.10
2022-09-28T00:34:02.208Z,0.20
2022-09-28T00:36:30.075Z,0.10
2022-09-28T00:38:57.076Z,0.20
2022-09-28T00:41:24.533Z,0.10
2022-09-28T00:43:51.681Z,0.10
2022-09-28T00:46:21.284Z,0.20
2022-09-28T00:48:52.724Z,0.20
2022-09-28T00:51:19.416Z,0.20
2022-09-28T00:53:46.593Z,0.10
2022-09-28T00:56:15.161Z,0.17
2022-09-28T00:58:43.428Z,0.20
2022-09-28T01:01:10.113Z,0.10
2022-09-28T01:03:37.699Z,0.10
2022-09-28T01:06:05.075Z,0.10
2022-09-28T01:08:32.810Z,0.10
2022-09-28T01:11:00.037Z,0.53
2022-09-28T01:13:28.123Z,0.10
2022-09-28T01:15:58.411Z,0.10
2022-09-28T01:18:34.644Z,0.20
2022-09-28T01:21:05.472Z,0.43
2022-09-28T01:23:50.538Z,0.20
2022-09-28T01:26:22.885Z,0.10
2022-09-28T01:28:51.473Z,0.10
2022-09-28T01:31:18.894Z,0.30
2022-09-28T01:33:48.139Z,0.17
2022-09-28T01:36:19.724Z,0.20
2022-09-28T01:38:52.743Z,0.10
2022-09-28T01:41:20.798Z,0.10
2022-09-28T01:43:51.405Z,0.10
2022-09-28T01:46:21.620Z,0.10
2022-09-28T01:48:55.682Z,0.13
2022-09-28T01:51:29.300Z,0.10
2022-09-28T01:53:58.968Z,0.10
2022-09-28T01:56:34.563Z,0.20
2022-09-28T01:59:06.527Z,0.20
2022-09-28T02:01:41.751Z,0.10
2022-09-28T02:04:13.383Z,0.20
2022-09-28T02:06:49.102Z,0.10
2022-09-28T02:09:33.606Z,0.57
2022-09-28T02:12:03.471Z,0.10
2022-09-28T02:14:31.674Z,0.10
2022-09-28T02:17:01.240Z,0.20
2022-09-28T02:19:31.933Z,0.10
2022-09-28T02:22:10.696Z,0.10
2022-09-28T02:24:43.056Z,0.10
2022-09-28T02:27:14.867Z,0.10
2022-09-28T02:29:41.716Z,0.10
2022-09-28T02:32:08.367Z,1.13
2022-09-28T02:34:35.507Z,0.10
2022-09-28T02:37:02.831Z,0.20
2022-09-28T02:39:29.583Z,0.13
2022-09-28T02:42:08.652Z,6.90
2022-09-28T02:44:35.904Z,8.90
2022-09-28T02:47:13.216Z,11.20
2022-09-28T02:49:46.097Z,10.83
2022-09-28T02:52:27.472Z,11.20
2022-09-28T02:55:00.245Z,10.20
2022-09-28T02:57:34.884Z,10.77
2022-09-28T03:00:02.064Z,10.50
2022-09-28T03:02:51.796Z,8.37
2022-09-28T03:05:38.774Z,13.03
2022-09-28T03:08:10.274Z,11.90
2022-09-28T03:10:40.359Z,11.50
2022-09-28T03:13:07.622Z,10.67
2022-09-28T03:15:36.323Z,10.00
2022-09-28T03:18:03.336Z,10.63
2022-09-28T03:20:30.695Z,9.80
2022-09-28T03:23:22.712Z,12.47
2022-09-28T03:25:44.220Z,10.53
2022-09-28T03:28:10.798Z,10.23
2022-09-28T03:30:39.997Z,11.13
2022-09-28T03:33:07.108Z,10.43
2022-09-28T03:35:34.020Z,9.33
2022-09-28T03:38:00.673Z,11.53
2022-09-28T03:40:29.787Z,10.47
2022-09-28T03:42:56.411Z,10.33
2022-09-28T03:45:23.042Z,9.53
2022-09-28T03:47:51.320Z,10.17
2022-09-28T03:50:18.810Z,10.40
2022-09-28T03:52:45.388Z,9.70
2022-09-28T03:55:12.067Z,10.93
2022-09-28T03:57:38.648Z,9.50
2022-09-28T04:00:05.628Z,10.33
2022-09-28T04:02:40.533Z,11.23
2022-09-28T04:05:07.772Z,9.83
2022-09-28T04:07:34.394Z,10.93
2022-09-28T04:10:01.088Z,8.63
2022-09-28T04:12:27.709Z,11.20
2022-09-28T04:14:54.376Z,10.00
2022-09-28T04:17:21.049Z,9.57
2022-09-28T04:19:48.260Z,8.10
2022-09-28T04:22:24.314Z,9.10
2022-09-28T04:24:50.936Z,8.03
2022-09-28T04:27:36.562Z,7.07
2022-09-28T04:30:03.236Z,12.37
2022-09-28T04:32:31.663Z,8.07
2022-09-28T04:34:58.350Z,10.13
2022-09-28T04:37:24.990Z,8.43
2022-09-28T04:39:51.538Z,7.33
2022-09-28T04:42:19.302Z,7.83
2022-09-28T04:44:46.271Z,8.53
2022-09-28T04:47:13.112Z,8.83
2022-09-28T04:50:07.952Z,8.73
2022-09-28T04:52:36.928Z,11.23
2022-09-28T04:55:03.976Z,10.00
2022-09-28T04:57:30.659Z,8.17
2022-09-28T04:59:57.317Z,9.13
2022-09-28T05:02:24.728Z,12.40
2022-09-28T05:04:51.423Z,10.03
2022-09-28T05:07:34.470Z,10.47
2022-09-28T05:10:03.400Z,11.63
2022-09-28T05:12:32.463Z,11.03
2022-09-28T05:15:00.645Z,10.53
2022-09-28T05:17:27.571Z,10.53
2022-09-28T05:20:14.461Z,11.47
2022-09-28T05:22:41.484Z,10.30
2022-09-28T05:25:09.567Z,9.63
2022-09-28T05:27:48.450Z,8.53
2022-09-28T05:30:44.101Z,11.47
2022-09-28T05:33:29.906Z,9.67
2022-09-28T05:36:10.952Z,11.47
2022-09-28T05:38:37.639Z,9.73
2022-09-28T05:41:06.755Z,10.70
2022-09-28T05:43:33.681Z,12.50
2022-09-28T05:46:03.334Z,11.43
2022-09-28T05:48:30.071Z,12.77
2022-09-28T05:50:58.691Z,13.70
2022-09-28T05:53:26.272Z,13.63
2022-09-28T05:55:52.938Z,12.77
2022-09-28T05:58:19.636Z,13.17
2022-09-28T06:00:46.236Z,14.10
2022-09-28T06:03:13.726Z,18.20
2022-09-28T06:05:40.931Z,14.93
2022-09-28T06:08:08.547Z,15.70
2022-09-28T06:10:35.375Z,13.43
2022-09-28T06:13:02.817Z,15.97
2022-09-28T06:15:30.763Z,14.13
2022-09-28T06:18:02.860Z,15.47
2022-09-28T06:20:37.972Z,13.20
2022-09-28T06:23:12.299Z,15.47
2022-09-28T06:25:40.187Z,13.80
2022-09-28T06:28:09.119Z,16.40
2022-09-28T06:30:38.288Z,13.77
2022-09-28T06:33:08.462Z,16.57
2022-09-28T06:35:36.459Z,14.97
2022-09-28T06:38:03.251Z,13.30
2022-09-28T06:40:30.728Z,15.33
2022-09-28T06:42:58.368Z,14.90
2022-09-28T06:45:43.789Z,14.40
2022-09-28T06:48:23.390Z,12.90
2022-09-28T06:50:50.218Z,17.33
2022-09-28T06:53:29.469Z,16.90
2022-09-28T06:56:02.682Z,10.77
2022-09-28T06:58:30.311Z,10.17
2022-09-28T07:01:01.087Z,10.87
2022-09-28T07:03:30.741Z,14.90
2022-09-28T07:05:57.488Z,12.23
2022-09-28T07:09:22.758Z,15.03
2022-09-28T07:12:15.383Z,13.47
2022-09-28T07:15:02.291Z,11.27
2022-09-28T07:17:29.164Z,17.87
2022-09-28T07:20:04.135Z,13.80
2022-09-28T07:22:42.923Z,9.57
2022-09-28T07:25:14.337Z,9.20
2022-09-28T07:27:59.710Z,10.73
2022-09-28T07:30:48.407Z,11.93
2022-09-28T07:33:35.388Z,7.50
2022-09-28T07:36:17.981Z,6.03
2022-09-28T07:38:44.869Z,7.03
2022-09-28T07:41:11.531Z,8.93
2022-09-28T07:43:43.129Z,7.27
2022-09-28T07:46:12.355Z,6.17
2022-09-28T07:48:43.944Z,5.73
2022-09-28T07:51:22.224Z,4.40
2022-09-28T07:54:08.358Z,4.50
2022-09-28T07:56:57.836Z,5.37
2022-09-28T07:59:35.445Z,4.13
2022-09-28T08:02:27.825Z,5.53
2022-09-28T08:04:54.478Z,3.10
2022-09-28T08:07:24.273Z,4.50
2022-09-28T08:09:57.568Z,3.27
2022-09-28T08:12:44.452Z,1.80
2022-09-28T08:15:36.209Z,2.53
2022-09-28T08:18:15.421Z,2.10
2022-09-28T08:21:01.110Z,4.00
2022-09-28T08:23:27.744Z,1.90
2022-09-28T08:25:54.750Z,4.83
2022-09-28T08:28:23.894Z,2.87
2022-09-28T08:30:54.416Z,3.20
2022-09-28T08:33:27.084Z,2.00
2022-09-28T08:36:12.110Z,5.30
2022-09-28T08:39:05.207Z,4.93
2022-09-28T08:42:17.924Z,2.20
2022-09-28T08:44:50.413Z,3.40
2022-09-28T08:47:59.261Z,2.33
2022-09-28T08:50:32.965Z,3.40
2022-09-28T08:53:34.339Z,2.23
2022-09-28T08:56:41.507Z,3.10
2022-09-28T08:59:17.504Z,3.50
2022-09-28T09:01:50.480Z,5.33
2022-09-28T09:04:17.827Z,2.33
2022-09-28T09:07:02.159Z,2.10
2022-09-28T09:09:51.395Z,3.53
2022-09-28T09:12:39.111Z,3.20
2022-09-28T09:15:06.227Z,5.53
2022-09-28T09:17:39.051Z,1.93
2022-09-28T09:20:29.975Z,2.80
2022-09-28T09:23:12.095Z,3.13
2022-09-28T09:25:45.905Z,3.10
2022-09-28T09:28:33.385Z,3.17
2022-09-28T09:31:09.153Z,4.13
2022-09-28T09:33:41.863Z,4.93
2022-09-28T09:36:42.331Z,4.10
2022-09-28T09:39:41.617Z,3.60
2022-09-28T09:42:53.309Z,3.27
2022-09-28T09:46:00.787Z,1.93
2022-09-28T09:48:45.349Z,2.40
2022-09-28T09:51:17.922Z,1.90
2022-09-28T09:53:48.665Z,2.40
2022-09-28T09:56:17.066Z,2.23
2022-09-28T09:59:01.505Z,2.27
2022-09-28T10:01:39.897Z,2.37
2022-09-28T10:04:21.009Z,1.73
2022-09-28T10:06:50.396Z,3.60
2022-09-28T10:09:33.042Z,3.90
2022-09-28T10:12:21.737Z,1.63
2022-09-28T10:14:49.608Z,1.80
2022-09-28T10:17:20.234Z,2.93
2022-09-28T10:20:15.060Z,2.80
2022-09-28T10:23:39.047Z,3.37
2022-09-28T10:26:16.576Z,1.60
2022-09-28T10:28:47.623Z,1.87
2022-09-28T10:31:34.230Z,3.27
2022-09-28T10:34:01.013Z,2.03
2022-09-28T10:36:28.204Z,2.40
2022-09-28T10:38:55.952Z,3.33
2022-09-28T10:41:31.804Z,2.23
2022-09-28T10:44:10.988Z,3.93
2022-09-28T10:46:58.386Z,2.70
2022-09-28T10:49:30.602Z,1.73
2022-09-28T10:51:58.194Z,2.40
2022-09-28T10:54:34.080Z,3.37
2022-09-28T10:57:00.912Z,1.70
2022-09-28T10:59:46.703Z,2.03
2022-09-28T11:02:37.526Z,2.43
2022-09-28T11:05:20.013Z,1.87
2022-09-28T11:07:47.950Z,1.67
2022-09-28T11:10:23.757Z,1.30
2022-09-28T11:12:52.361Z,3.47
2022-09-28T11:15:22.115Z,2.90
2022-09-28T11:17:50.664Z,0.93
2022-09-28T11:20:27.737Z,1.60
2022-09-28T11:22:58.705Z,2.83
2022-09-28T11:25:31.415Z,3.60
2022-09-28T11:28:00.705Z,2.97
2022-09-28T11:30:27.329Z,1.70
2022-09-28T11:33:15.433Z,2.97
2022-09-28T11:36:02.207Z,1.17
2022-09-28T11:38:33.631Z,1.90
2022-09-28T11:41:23.104Z,3.57
2022-09-28T11:43:50.238Z,1.30
2022-09-28T11:46:20.022Z,1.97
2022-09-28T11:48:52.939Z,1.10
2022-09-28T11:51:23.258Z,1.30
2022-09-28T11:53:55.233Z,1.60
2022-09-28T11:56:35.048Z,0.93
2022-09-28T11:59:09.867Z,2.30
2022-09-28T12:02:00.712Z,5.00
2022-09-28T12:04:48.108Z,1.63
2022-09-28T12:07:20.704Z,2.97
2022-09-28T12:10:08.591Z,2.60
2022-09-28T12:12:38.341Z,2.57
2022-09-28T12:15:15.292Z,1.77
2022-09-28T12:18:17.151Z,1.70
2022-09-28T12:20:46.728Z,1.67
2022-09-28T12:23:24.366Z,2.40
2022-09-28T12:26:04.826Z,3.87
2022-09-28T12:28:31.477Z,2.50
2022-09-28T12:31:00.432Z,1.30
2022-09-28T12:33:27.033Z,3.50
2022-09-28T12:36:09.880Z,3.17
2022-09-28T12:38:39.300Z,2.57
2022-09-28T12:41:32.446Z,2.87
2022-09-28T12:44:09.988Z,2.43
2022-09-28T12:46:36.775Z,3.63
2022-09-28T12:50:27.127Z,2.83
2022-09-28T12:52:00.332Z,3.33
2022-09-28T12:54:44.973Z,6.67
2022-09-28T12:57:30.118Z,3.00
2022-09-28T13:00:02.609Z,3.00
2022-09-28T13:02:32.486Z,4.20
2022-09-28T13:04:59.137Z,5.13
2022-09-28T13:07:33.410Z,2.87
2022-09-28T13:10:06.126Z,6.33
2022-09-28T13:12:41.881Z,5.90
2022-09-28T13:15:27.839Z,5.23
2022-09-28T13:18:03.580Z,4.13
2022-09-28T13:20:49.226Z,4.03
2022-09-28T13:23:23.754Z,4.80
2022-09-28T13:25:56.418Z,2.93
2022-09-28T13:28:27.176Z,2.43
2022-09-28T13:30:55.422Z,4.40
2022-09-28T13:33:25.913Z,3.30
2022-09-28T13:35:52.488Z,3.57
2022-09-28T13:38:19.110Z,4.63
2022-09-28T13:41:10.763Z,3.73
2022-09-28T13:43:40.421Z,5.63
2022-09-28T13:46:10.487Z,3.03
2022-09-28T13:48:49.419Z,3.07
2022-09-28T13:51:21.384Z,4.57
2022-09-28T13:53:48.295Z,2.90
2022-09-28T13:56:14.825Z,4.50
2022-09-28T13:58:44.066Z,6.13
2022-09-28T14:01:14.154Z,3.20
2022-09-28T14:03:43.839Z,3.83
2022-09-28T14:06:25.560Z,3.23
2022-09-28T14:08:52.084Z,1.93
2022-09-28T14:11:24.718Z,5.47
2022-09-28T14:14:13.973Z,5.03
2022-09-28T14:16:41.305Z,3.07
2022-09-28T14:19:20.490Z,6.30
2022-09-28T14:21:47.194Z,2.43
2022-09-28T14:24:21.164Z,5.83
2022-09-28T14:26:56.279Z,2.90
2022-09-28T14:29:28.868Z,5.47
2022-09-28T14:31:59.274Z,7.13
2022-09-28T14:34:30.237Z,3.43
2022-09-28T14:37:15.303Z,3.57
2022-09-28T14:40:03.052Z,6.50
2022-09-28T14:42:30.050Z,2.77
2022-09-28T14:45:06.148Z,1.73
2022-09-28T14:47:38.098Z,0.77
2022-09-28T14:50:21.102Z,1.60
2022-09-28T14:52:51.634Z,0.50
2022-09-28T14:55:19.940Z,0.60
2022-09-28T14:57:52.089Z,1.07
2022-09-28T15:00:20.746Z,0.77
2022-09-28T15:02:52.697Z,0.57
2022-09-28T15:05:24.270Z,0.60
2022-09-28T15:07:52.282Z,1.27
2022-09-28T15:10:33.236Z,2.97
2022-09-28T15:13:03.644Z,2.23
2022-09-28T15:15:40.863Z,3.77
2022-09-28T15:18:19.471Z,1.67
2022-09-28T15:20:47.930Z,2.13
2022-09-28T15:23:37.777Z,1.67
2022-09-28T15:26:08.498Z,2.50
2022-09-28T15:28:36.407Z,6.63
2022-09-28T15:31:04.411Z,3.03
2022-09-28T15:33:50.915Z,1.37
2022-09-28T15:36:18.822Z,3.13
2022-09-28T15:38:51.490Z,3.00
2022-09-28T15:41:18.156Z,2.60
2022-09-28T15:43:58.336Z,2.53
2022-09-28T15:46:27.631Z,1.90
2022-09-28T15:48:56.289Z,3.93
2022-09-28T15:51:24.237Z,3.90
2022-09-28T15:54:01.017Z,4.80
2022-09-28T15:56:28.305Z,4.23
2022-09-28T15:59:13.196Z,3.13
2022-09-28T16:01:40.991Z,4.27
2022-09-28T16:04:26.033Z,3.53
2022-09-28T16:07:06.721Z,4.23
2022-09-28T16:09:40.288Z,4.33
2022-09-28T16:12:09.226Z,2.20
2022-09-28T16:14:35.774Z,3.00
2022-09-28T16:17:04.002Z,2.43
2022-09-28T16:19:36.176Z,2.77
2022-09-28T16:22:06.471Z,4.20
2022-09-28T16:24:34.570Z,3.13
2022-09-28T16:27:02.649Z,2.57
2022-09-28T16:29:40.263Z,3.20
2022-09-28T16:32:25.469Z,4.17
2022-09-28T16:35:13.200Z,6.37
2022-09-28T16:37:43.843Z,4.50
2022-09-28T16:40:10.857Z,2.33
2022-09-28T16:42:38.812Z,2.30
2022-09-28T16:45:06.190Z,3.30
2022-09-28T16:47:34.156Z,2.87
2022-09-28T16:50:02.359Z,2.90
2022-09-28T16:52:47.449Z,3.53
2022-09-28T16:55:41.394Z,5.33
2022-09-28T16:58:04.842Z,2.60
2022-09-28T17:00:32.549Z,2.90
2022-09-28T17:02:59.315Z,4.57
2022-09-28T17:05:26.014Z,5.73
2022-09-28T17:08:00.327Z,4.93
2022-09-28T17:10:50.141Z,12.57
2022-09-28T17:13:23.624Z,4.87
2022-09-28T17:15:50.357Z,5.10
2022-09-28T17:18:20.084Z,4.93
2022-09-28T17:20:50.751Z,5.63
2022-09-28T17:23:17.745Z,7.67
2022-09-28T17:25:44.774Z,6.77
2022-09-28T17:28:20.114Z,5.90
2022-09-28T17:30:46.726Z,7.50
2022-09-28T17:33:13.527Z,7.07
2022-09-28T17:35:40.830Z,4.23
2022-09-28T17:38:09.092Z,4.97
2022-09-28T17:40:35.835Z,3.93
2022-09-28T17:43:05.717Z,7.90
2022-09-28T17:45:32.876Z,3.30
2022-09-28T17:47:59.884Z,3.57
2022-09-28T17:50:27.978Z,3.60
2022-09-28T17:52:54.654Z,4.83
2022-09-28T17:55:27.399Z,2.63
2022-09-28T17:57:54.453Z,3.50
2022-09-28T18:00:21.182Z,4.20
2022-09-28T18:02:49.055Z,3.43
2022-09-28T18:05:15.680Z,5.30
2022-09-28T18:07:47.437Z,7.60
2022-09-28T18:10:15.336Z,7.60
2022-09-28T18:12:43.244Z,5.17
2022-09-28T18:15:10.371Z,5.13
2022-09-28T18:17:37.093Z,3.03
2022-09-28T18:20:04.158Z,3.17
2022-09-28T18:22:30.755Z,4.33
2022-09-28T18:24:57.284Z,5.10
2022-09-28T18:27:24.037Z,5.67
2022-09-28T18:29:50.574Z,6.03
2022-09-28T18:32:17.159Z,8.03
2022-09-28T18:34:43.716Z,7.40
2022-09-28T18:37:10.640Z,5.23
2022-09-28T18:39:37.526Z,4.10
2022-09-28T18:42:04.362Z,6.70
2022-09-28T18:44:30.985Z,6.33
2022-09-28T18:46:57.804Z,5.90
2022-09-28T18:49:24.444Z,4.77
2022-09-28T18:51:51.136Z,4.13
2022-09-28T18:54:18.106Z,4.73
2022-09-28T18:56:44.732Z,5.47
2022-09-28T18:59:12.551Z,4.73
2022-09-28T19:01:40.337Z,3.33
2022-09-28T19:04:07.593Z,4.40
2022-09-28T19:06:34.411Z,3.80
2022-09-28T19:09:01.209Z,3.07
2022-09-28T19:11:28.628Z,3.80
2022-09-28T19:13:55.678Z,6.30
2022-09-28T19:16:24.929Z,6.33
2022-09-28T19:18:53.732Z,6.70
2022-09-28T19:21:20.904Z,9.30
2022-09-28T19:23:49.685Z,11.27
2022-09-28T19:26:21.269Z,6.10
2022-09-28T19:28:48.022Z,5.07
2022-09-28T19:31:14.877Z,6.90
2022-09-28T19:33:41.808Z,8.87
2022-09-28T19:36:10.208Z,6.70
2022-09-28T19:38:37.698Z,5.53
2022-09-28T19:41:11.397Z,6.97
2022-09-28T19:43:38.468Z,5.47
2022-09-28T19:46:06.300Z,5.57
2022-09-28T19:48:33.472Z,6.07
2022-09-28T19:51:00.083Z,5.13
2022-09-28T19:53:27.606Z,4.90
2022-09-28T19:55:54.733Z,6.13
2022-09-28T19:58:25.523Z,4.80
2022-09-28T20:00:52.331Z,4.40
2022-09-28T20:03:19.105Z,4.73
2022-09-28T20:05:46.216Z,4.93
2022-09-28T20:08:15.015Z,6.83
2022-09-28T20:10:54.742Z,5.80
2022-09-28T20:13:21.572Z,5.97
2022-09-28T20:15:48.477Z,5.73
2022-09-28T20:18:15.403Z,6.03
2022-09-28T20:20:42.667Z,6.00
2022-09-28T20:23:09.694Z,6.87
2022-09-28T20:25:36.354Z,6.50
2022-09-28T20:28:03.231Z,6.67
2022-09-28T20:30:29.845Z,7.60
2022-09-28T20:32:56.363Z,6.43
2022-09-28T20:35:32.666Z,7.67
2022-09-28T20:38:07.883Z,7.03
2022-09-28T20:40:38.214Z,9.73
2022-09-28T20:43:06.411Z,9.07
2022-09-28T20:45:37.403Z,7.30
2022-09-28T20:48:04.676Z,7.90
2022-09-28T20:50:31.271Z,9.00
2022-09-28T20:52:57.817Z,8.43
2022-09-28T20:55:24.373Z,9.30
2022-09-28T20:57:50.904Z,7.57
2022-09-28T21:00:17.426Z,8.43
2022-09-28T21:02:44.050Z,9.93
2022-09-28T21:05:10.790Z,9.00
2022-09-28T21:07:38.373Z,8.67
2022-09-28T21:10:05.638Z,8.47
2022-09-28T21:12:34.263Z,10.20
2022-09-28T21:15:05.574Z,8.43
2022-09-28T21:17:32.580Z,7.80
2022-09-28T21:19:59.160Z,8.83
2022-09-28T21:22:25.703Z,9.67
2022-09-28T21:24:52.270Z,9.63
2022-09-28T21:27:18.852Z,11.33
2022-09-28T21:29:45.400Z,10.10
2022-09-28T21:32:12.260Z,9.00
2022-09-28T21:34:38.883Z,9.47
2022-09-28T21:37:05.488Z,10.57
2022-09-28T21:39:32.069Z,8.40
2022-09-28T21:41:58.647Z,8.90
2022-09-28T21:44:26.210Z,8.93
2022-09-28T21:46:52.784Z,9.93
2022-09-28T21:49:19.382Z,9.27
2022-09-28T21:51:47.180Z,9.00
2022-09-28T21:54:13.898Z,11.17
2022-09-28T21:56:40.566Z,9.67
2022-09-28T21:59:07.081Z,9.57
2022-09-28T22:01:33.675Z,8.67
2022-09-28T22:04:00.364Z,8.87
2022-09-28T22:06:29.675Z,8.63
2022-09-28T22:08:56.371Z,9.47
2022-09-28T22:11:24.165Z,9.20
2022-09-28T22:13:50.675Z,8.40
2022-09-28T22:16:18.349Z,8.77
2022-09-28T22:18:45.702Z,8.83
2022-09-28T22:21:22.816Z,9.57
2022-09-28T22:23:50.004Z,9.53
2022-09-28T22:26:18.971Z,8.50
2022-09-28T22:28:47.163Z,8.90
2022-09-28T22:31:14.307Z,8.53
2022-09-28T22:33:40.887Z,8.17
2022-09-28T22:36:07.992Z,8.37
2022-09-28T22:38:35.318Z,10.93
2022-09-28T22:41:03.841Z,9.27
2022-09-28T22:43:31.455Z,8.23
2022-09-28T22:46:05.361Z,11.13
2022-09-28T22:48:32.352Z,9.07
2022-09-28T22:50:59.307Z,8.30
2022-09-28T22:53:25.899Z,8.57
2022-09-28T22:55:52.540Z,8.93
2022-09-28T22:58:19.140Z,10.17
2022-09-28T23:00:45.805Z,11.00
2022-09-28T23:03:12.463Z,9.17
2022-09-28T23:05:39.163Z,8.07
2022-09-28T23:08:05.953Z,9.50
2022-09-28T23:10:32.728Z,10.40
2022-09-28T23:13:00.047Z,10.77
2022-09-28T23:15:27.887Z,9.63
2022-09-28T23:17:54.908Z,12.27
2022-09-28T23:20:21.701Z,10.80
2022-09-28T23:22:48.784Z,10.03
2022-09-28T23:25:17.169Z,11.70
2022-09-28T23:27:50.336Z,12.63
2022-09-28T23:30:18.018Z,10.13
2022-09-28T23:32:44.664Z,11.53
2022-09-28T23:35:11.291Z,11.30
2022-09-28T23:37:37.986Z,11.63
2022-09-28T23:40:05.413Z,10.83
2022-09-28T23:42:32.024Z,11.13
2022-09-28T23:44:58.665Z,10.13
2022-09-28T23:47:25.248Z,13.37
2022-09-28T23:49:51.820Z,13.63
2022-09-28T23:52:18.415Z,10.10
2022-09-28T23:54:45.016Z,13.50
2022-09-28T23:57:11.639Z,11.40
2022-09-28T23:59:38.725Z,13.23
